createdAt,value
2017-11-22T00:00:54.842Z,36.0
2017-11-22T00:10:54.919Z,40.0
2017-11-22T00:20:55.183Z,39.4
2017-11-22T00:30:55.763Z,39.0
2017-11-22T00:40:54.639Z,41.5
2017-11-22T00:50:54.848Z,41.4
2017-11-22T01:00:54.771Z,40.4
2017-11-22T01:10:54.633Z,33.6
2017-11-22T01:20:54.765Z,35.7
2017-11-22T01:30:54.697Z,40.3
2017-11-22T01:40:54.663Z,41.6
2017-11-22T01:50:54.487Z,38.8
2017-11-22T02:00:55.696Z,37.8
2017-11-22T02:10:54.789Z,39.0
2017-11-22T02:20:54.947Z,38.7
2017-11-22T02:30:54.997Z,36.6
2017-11-22T02:40:55.555Z,38.6
2017-11-22T02:50:55.686Z,38.8
2017-11-22T03:00:54.858Z,35.2
2017-11-22T03:10:54.718Z,34.4
2017-11-22T03:20:54.973Z,32.8
2017-11-22T03:30:55.318Z,33.4
2017-11-22T03:40:55.659Z,34.5
2017-11-22T03:50:55.102Z,33.3
2017-11-22T04:00:54.979Z,34.5
2017-11-22T04:10:54.858Z,31.7
2017-11-22T04:20:54.800Z,33.5
2017-11-22T04:30:54.752Z,32.1
2017-11-22T04:40:54.818Z,31.0
2017-11-22T04:50:55.209Z,31.4
2017-11-22T05:00:55.526Z,27.3
2017-11-22T05:10:55.405Z,31.1
2017-11-22T05:20:55.356Z,23.4
2017-11-22T05:30:55.342Z,24.1
2017-11-22T05:40:56.156Z,25.4
2017-11-22T05:50:55.706Z,22.9
2017-11-22T06:00:54.853Z,24.8
2017-11-22T06:10:55.035Z,29.6
2017-11-22T06:20:55.698Z,28.7
2017-11-22T06:30:54.621Z,30.2
2017-11-22T06:40:55.714Z,26.6
2017-11-22T06:50:55.170Z,29.8
2017-11-22T07:00:55.483Z,30.3
2017-11-22T07:10:56.071Z,29.1
2017-11-22T07:20:55.616Z,32.5
2017-11-22T07:30:54.640Z,33.0
2017-11-22T07:40:54.516Z,31.7
2017-11-22T07:50:55.432Z,30.7
2017-11-22T08:00:55.233Z,29.8
2017-11-22T08:10:55.379Z,30.4
2017-11-22T08:20:55.539Z,38.0
2017-11-22T08:30:55.890Z,37.5
2017-11-22T08:40:54.796Z,44.2
2017-11-22T08:50:55.202Z,37.1
2017-11-22T09:00:55.365Z,36.6
2017-11-22T09:10:55.207Z,38.4
2017-11-22T09:20:55.675Z,41.2
2017-11-22T09:30:54.973Z,40.8
2017-11-22T09:40:54.916Z,44.9
2017-11-22T09:50:55.002Z,41.4
2017-11-22T10:00:55.376Z,44.6
2017-11-22T10:10:55.356Z,39.5
2017-11-22T10:20:55.798Z,38.1
2017-11-22T10:30:54.609Z,38.8
2017-11-22T10:40:54.439Z,37.1
2017-11-22T10:50:55.449Z,31.4
2017-11-22T11:00:55.925Z,34.5
2017-11-22T11:10:55.605Z,33.1
2017-11-22T11:20:55.198Z,35.4
2017-11-22T11:30:55.580Z,36.2
2017-11-22T11:40:55.456Z,36.1
2017-11-22T11:50:55.353Z,38.1
2017-11-22T12:00:55.582Z,37.8
2017-11-22T12:10:55.379Z,40.6
2017-11-22T12:20:55.315Z,42.1
2017-11-22T12:30:55.961Z,41.7
2017-11-22T12:40:55.692Z,38.7
2017-11-22T12:50:54.573Z,41.1
2017-11-22T13:00:55.783Z,43.8
2017-11-22T13:10:55.216Z,50.1
2017-11-22T13:20:55.243Z,42.2
2017-11-22T13:30:55.424Z,43.6
2017-11-22T13:40:55.276Z,46.5
2017-11-22T13:50:55.616Z,43.9
2017-11-22T14:00:55.072Z,49.4
2017-11-22T14:10:55.647Z,52.2
2017-11-22T14:20:54.693Z,55.6
2017-11-22T14:30:54.577Z,59.8
2017-11-22T14:40:54.755Z,54.3
2017-11-22T14:50:55.695Z,52.9
2017-11-22T15:00:54.709Z,51.1
2017-11-22T15:10:54.549Z,51.5
2017-11-22T15:20:55.106Z,51.5
2017-11-22T15:30:54.980Z,46.4
2017-11-22T15:40:55.299Z,39.0
2017-11-22T15:50:55.207Z,34.8
2017-11-22T16:00:55.584Z,33.0
2017-11-22T16:10:55.782Z,38.0
2017-11-22T16:20:54.795Z,38.6
2017-11-22T16:30:54.728Z,39.3
2017-11-22T16:40:54.745Z,39.3
2017-11-22T16:50:54.697Z,39.4
2017-11-22T17:00:54.920Z,40.0
2017-11-22T17:10:55.304Z,39.5
2017-11-22T17:20:56.333Z,42.9
2017-11-22T17:30:55.667Z,47.4
2017-11-22T17:40:54.769Z,43.4
2017-11-22T17:50:54.760Z,43.6
2017-11-22T18:00:54.657Z,45.2
2017-11-22T18:10:55.112Z,46.9
2017-11-22T18:20:55.495Z,46.0
2017-11-22T18:30:55.841Z,46.2
2017-11-22T18:40:55.045Z,48.6
2017-11-22T18:50:55.481Z,48.9
2017-11-22T19:00:55.918Z,47.8
2017-11-22T19:10:54.768Z,48.8
2017-11-22T19:20:55.194Z,51.7
2017-11-22T19:30:55.612Z,51.6
2017-11-22T19:40:55.327Z,51.0
2017-11-22T19:50:55.677Z,55.4
2017-11-22T20:00:55.031Z,56.5
2017-11-22T20:10:55.164Z,55.1
2017-11-22T20:20:55.310Z,57.2
2017-11-22T20:30:56.704Z,55.7
2017-11-22T20:40:55.275Z,52.4
2017-11-22T20:50:55.567Z,50.5
2017-11-22T21:00:55.696Z,50.1
2017-11-22T21:10:55.310Z,49.8
2017-11-22T21:20:55.646Z,50.2
2017-11-22T21:30:54.869Z,48.5
2017-11-22T21:40:55.923Z,52.7
2017-11-22T21:50:55.203Z,48.4
2017-11-22T22:00:55.145Z,50.0
2017-11-22T22:10:55.402Z,46.8
2017-11-22T22:20:55.736Z,46.5
2017-11-22T22:30:55.036Z,47.0
2017-11-22T22:40:55.038Z,47.4
2017-11-22T22:50:54.993Z,47.2
2017-11-22T23:00:55.368Z,47.1
2017-11-22T23:10:55.382Z,53.2
2017-11-22T23:20:56.101Z,53.9
2017-11-22T23:30:55.702Z,54.9
2017-11-22T23:40:54.657Z,54.7
2017-11-22T23:50:55.449Z,53.2
